createdAt,value
2023-01-07T00:02:22.273Z,93.51
2023-01-07T00:04:47.241Z,92.08
2023-01-07T00:07:11.950Z,91.20
2023-01-07T00:09:35.702Z,91.69
2023-01-07T00:11:59.277Z,90.65
2023-01-07T00:14:22.801Z,93.19
2023-01-07T00:16:46.799Z,92.31
2023-01-07T00:19:14.895Z,92.06
2023-01-07T00:21:39.860Z,91.39
2023-01-07T00:24:06.140Z,92.32
2023-01-07T00:26:33.352Z,92.74
2023-01-07T00:28:56.876Z,91.00
2023-01-07T00:31:23.443Z,92.37
2023-01-07T00:33:51.876Z,94.27
2023-01-07T00:36:15.593Z,94.23
2023-01-07T00:38:40.711Z,93.07
2023-01-07T00:41:04.496Z,93.36
2023-01-07T00:43:29.548Z,92.38
2023-01-07T00:45:53.151Z,92.33
2023-01-07T00:48:18.445Z,90.65
2023-01-07T00:50:42.414Z,90.62
2023-01-07T00:53:06.407Z,90.07
2023-01-07T00:55:31.934Z,90.65
2023-01-07T00:57:56.326Z,90.44
2023-01-07T01:00:22.647Z,90.71
2023-01-07T01:02:47.144Z,90.22
2023-01-07T01:05:11.490Z,89.50
2023-01-07T01:07:35.903Z,90.36
2023-01-07T01:09:59.547Z,90.87
2023-01-07T01:12:24.493Z,89.52
2023-01-07T01:14:48.214Z,90.10
2023-01-07T01:17:11.782Z,90.73
2023-01-07T01:19:35.449Z,91.71
2023-01-07T01:21:58.996Z,91.07
2023-01-07T01:24:22.659Z,90.39
2023-01-07T01:26:46.179Z,89.43
2023-01-07T01:29:11.238Z,89.35
2023-01-07T01:31:35.365Z,90.57
2023-01-07T01:34:00.044Z,89.15
2023-01-07T01:36:24.240Z,90.13
2023-01-07T01:38:49.635Z,89.42
2023-01-07T01:41:16.717Z,89.06
2023-01-07T01:43:44.476Z,88.46
2023-01-07T01:46:16.551Z,89.23
2023-01-07T01:48:48.097Z,90.97
2023-01-07T01:51:12.800Z,90.41
2023-01-07T01:53:37.379Z,89.36
2023-01-07T01:56:05.973Z,90.22
2023-01-07T01:58:46.318Z,91.45
2023-01-07T02:01:11.681Z,90.31
2023-01-07T02:03:37.941Z,89.72
2023-01-07T02:06:02.366Z,89.10
2023-01-07T02:08:26.017Z,88.96
2023-01-07T02:11:30.590Z,89.26
2023-01-07T02:14:13.475Z,89.28
2023-01-07T02:16:45.467Z,89.28
2023-01-07T02:19:34.562Z,90.25
2023-01-07T02:22:07.795Z,90.66
2023-01-07T02:25:01.128Z,89.85
2023-01-07T02:28:00.515Z,89.72
2023-01-07T02:30:52.336Z,90.68
2023-01-07T02:33:42.545Z,90.45
2023-01-07T02:36:40.370Z,89.31
2023-01-07T02:39:25.830Z,90.02
2023-01-07T02:41:58.773Z,88.96
2023-01-07T02:44:33.549Z,89.03
2023-01-07T02:47:05.286Z,88.96
2023-01-07T02:49:30.276Z,90.49
2023-01-07T02:51:54.739Z,89.84
2023-01-07T02:54:23.814Z,90.06
2023-01-07T02:57:15.759Z,90.47
2023-01-07T03:00:04.008Z,89.35
2023-01-07T03:02:47.580Z,89.51
2023-01-07T03:05:29.277Z,89.58
2023-01-07T03:08:09.027Z,90.58
2023-01-07T03:10:41.806Z,89.53
2023-01-07T03:13:09.646Z,90.25
2023-01-07T03:15:41.604Z,90.30
2023-01-07T03:18:10.306Z,91.58
2023-01-07T03:20:39.011Z,91.15
2023-01-07T03:23:07.362Z,92.98
2023-01-07T03:25:34.366Z,92.50
2023-01-07T03:28:00.578Z,91.73
2023-01-07T03:30:27.816Z,90.89
2023-01-07T03:32:57.884Z,91.10
2023-01-07T03:35:23.206Z,92.25
2023-01-07T03:37:50.252Z,91.15
2023-01-07T03:40:14.207Z,91.29
2023-01-07T03:42:40.583Z,92.78
2023-01-07T03:45:13.430Z,92.31
2023-01-07T03:47:40.962Z,91.23
2023-01-07T03:50:04.886Z,91.64
2023-01-07T03:52:28.493Z,90.99
2023-01-07T03:54:53.475Z,90.96
2023-01-07T03:57:17.167Z,91.16
2023-01-07T03:59:40.828Z,90.91
2023-01-07T04:02:04.610Z,90.21
2023-01-07T04:04:28.658Z,90.18
2023-01-07T04:06:52.499Z,89.99
2023-01-07T04:09:18.822Z,89.68
2023-01-07T04:11:44.346Z,92.91
2023-01-07T04:14:08.362Z,91.62
2023-01-07T04:16:31.990Z,92.73
2023-01-07T04:18:56.042Z,90.90
2023-01-07T04:21:19.851Z,90.10
2023-01-07T04:23:43.377Z,89.70
2023-01-07T04:26:07.550Z,90.02
2023-01-07T04:28:32.501Z,89.66
2023-01-07T04:30:56.375Z,90.01
2023-01-07T04:33:20.433Z,89.74
2023-01-07T04:35:48.048Z,90.18
2023-01-07T04:38:12.636Z,89.56
2023-01-07T04:40:36.249Z,91.48
2023-01-07T04:43:00.432Z,91.09
2023-01-07T04:45:26.395Z,90.47
2023-01-07T04:47:49.953Z,91.43
2023-01-07T04:50:14.738Z,91.71
2023-01-07T04:52:38.343Z,91.43
2023-01-07T04:55:02.614Z,92.54
2023-01-07T04:57:26.695Z,92.30
2023-01-07T04:59:50.730Z,92.40
2023-01-07T05:02:15.744Z,93.21
2023-01-07T05:04:39.474Z,94.68
2023-01-07T05:07:03.655Z,94.53
2023-01-07T05:09:27.276Z,94.56
2023-01-07T05:11:50.931Z,94.92
2023-01-07T05:14:15.106Z,95.88
2023-01-07T05:16:39.956Z,96.21
2023-01-07T05:19:08.262Z,95.00
2023-01-07T05:21:35.635Z,96.17
2023-01-07T05:23:59.343Z,98.13
2023-01-07T05:26:23.804Z,97.17
2023-01-07T05:28:47.358Z,96.42
2023-01-07T05:31:11.418Z,97.29
2023-01-07T05:33:35.443Z,96.35
2023-01-07T05:36:00.926Z,98.01
2023-01-07T05:38:24.926Z,99.73
2023-01-07T05:40:50.213Z,97.66
2023-01-07T05:43:18.343Z,96.19
2023-01-07T05:45:44.436Z,96.03
2023-01-07T05:48:08.363Z,97.61
2023-01-07T05:50:31.871Z,97.45
2023-01-07T05:52:58.160Z,95.80
2023-01-07T05:55:21.757Z,95.46
2023-01-07T05:57:45.356Z,98.05
2023-01-07T06:00:11.111Z,97.26
2023-01-07T06:02:37.791Z,96.01
2023-01-07T06:05:01.387Z,97.29
2023-01-07T06:07:25.042Z,96.67
2023-01-07T06:09:50.005Z,95.73
2023-01-07T06:12:13.551Z,95.40
2023-01-07T06:14:37.059Z,95.09
2023-01-07T06:17:00.746Z,94.48
2023-01-07T06:19:24.247Z,95.16
2023-01-07T06:21:47.809Z,95.25
2023-01-07T06:24:12.442Z,96.21
2023-01-07T06:26:37.617Z,96.27
2023-01-07T06:29:01.138Z,95.50
2023-01-07T06:31:24.754Z,95.49
2023-01-07T06:33:48.385Z,95.50
2023-01-07T06:36:12.215Z,94.61
2023-01-07T06:38:36.083Z,95.51
2023-01-07T06:40:59.812Z,96.50
2023-01-07T06:43:24.727Z,95.63
2023-01-07T06:45:48.539Z,96.61
2023-01-07T06:48:12.084Z,97.22
2023-01-07T06:50:35.641Z,100.00
2023-01-07T06:52:59.167Z,99.51
2023-01-07T06:55:22.750Z,98.72
2023-01-07T06:57:46.394Z,97.11
2023-01-07T07:00:13.412Z,98.45
2023-01-07T07:02:37.035Z,98.23
2023-01-07T07:05:00.674Z,97.69
2023-01-07T07:07:25.522Z,97.79
2023-01-07T07:09:51.190Z,97.75
2023-01-07T07:12:15.087Z,98.04
2023-01-07T07:14:38.696Z,98.04
2023-01-07T07:17:03.832Z,98.10
2023-01-07T07:19:27.424Z,97.70
2023-01-07T07:21:50.943Z,97.55
2023-01-07T07:24:14.754Z,98.45
2023-01-07T07:26:38.252Z,97.83
2023-01-07T07:29:01.800Z,97.77
2023-01-07T07:31:25.447Z,98.29
2023-01-07T07:33:50.462Z,97.81
2023-01-07T07:36:13.983Z,97.58
2023-01-07T07:38:37.836Z,97.47
2023-01-07T07:41:02.635Z,97.74
2023-01-07T07:43:26.192Z,98.74
2023-01-07T07:45:49.753Z,98.17
2023-01-07T07:48:16.493Z,98.80
2023-01-07T07:50:41.449Z,97.16
2023-01-07T07:53:05.770Z,96.91
2023-01-07T07:55:29.547Z,98.10
2023-01-07T07:57:55.277Z,99.00
2023-01-07T08:00:19.168Z,98.85
2023-01-07T08:02:42.776Z,97.98
2023-01-07T08:05:08.206Z,96.95
2023-01-07T08:07:33.930Z,97.52
2023-01-07T08:09:58.018Z,97.65
2023-01-07T08:12:21.566Z,96.59
2023-01-07T08:14:45.074Z,97.64
2023-01-07T08:17:08.690Z,97.10
2023-01-07T08:19:32.238Z,98.02
2023-01-07T08:21:55.857Z,97.70
2023-01-07T08:24:20.837Z,97.97
2023-01-07T08:26:44.424Z,97.80
2023-01-07T08:29:08.898Z,97.71
2023-01-07T08:31:32.554Z,97.27
2023-01-07T08:33:56.120Z,96.65
2023-01-07T08:36:23.629Z,97.40
2023-01-07T08:38:47.317Z,97.40
2023-01-07T08:41:12.335Z,97.52
2023-01-07T08:43:36.117Z,97.16
2023-01-07T08:45:59.656Z,96.92
2023-01-07T08:48:23.448Z,97.15
2023-01-07T08:50:52.152Z,98.30
2023-01-07T08:53:15.662Z,98.32
2023-01-07T08:55:39.258Z,97.80
2023-01-07T08:58:04.169Z,97.80
2023-01-07T09:00:28.183Z,97.12
2023-01-07T09:02:52.042Z,97.95
2023-01-07T09:05:15.683Z,97.95
2023-01-07T09:07:39.705Z,97.25
2023-01-07T09:10:03.804Z,97.27
2023-01-07T09:12:27.344Z,97.55
2023-01-07T09:14:52.259Z,96.11
2023-01-07T09:17:15.827Z,95.18
2023-01-07T09:19:39.437Z,95.94
2023-01-07T09:22:02.974Z,95.60
2023-01-07T09:24:26.653Z,94.69
2023-01-07T09:26:50.188Z,95.24
2023-01-07T09:29:13.938Z,95.64
2023-01-07T09:31:38.856Z,95.76
2023-01-07T09:34:02.552Z,95.46
2023-01-07T09:36:27.054Z,95.87
2023-01-07T09:38:50.657Z,95.50
2023-01-07T09:41:28.680Z,95.21
2023-01-07T09:44:01.901Z,97.72
2023-01-07T09:46:29.206Z,96.45
2023-01-07T09:48:59.309Z,95.24
2023-01-07T09:51:28.877Z,95.24
2023-01-07T09:53:55.438Z,95.01
2023-01-07T09:56:25.293Z,95.30
2023-01-07T09:58:49.757Z,94.88
2023-01-07T10:01:26.887Z,95.19
2023-01-07T10:04:08.981Z,95.28
2023-01-07T10:06:43.917Z,97.50
2023-01-07T10:09:19.676Z,97.21
2023-01-07T10:11:55.492Z,96.61
2023-01-07T10:14:51.104Z,97.45
2023-01-07T10:17:31.274Z,96.18
2023-01-07T10:20:03.667Z,96.04
2023-01-07T10:22:32.391Z,96.42
2023-01-07T10:25:01.549Z,95.18
2023-01-07T10:27:33.966Z,95.18
2023-01-07T10:30:03.250Z,95.15
2023-01-07T10:32:33.926Z,96.50
2023-01-07T10:35:01.578Z,96.24
2023-01-07T10:37:31.542Z,95.35
2023-01-07T10:40:16.582Z,95.45
2023-01-07T10:42:45.904Z,94.66
2023-01-07T10:45:50.189Z,94.68
2023-01-07T10:48:40.951Z,93.58
2023-01-07T10:51:23.405Z,93.75
2023-01-07T10:54:00.467Z,93.20
2023-01-07T10:56:30.759Z,91.53
2023-01-07T10:58:54.371Z,94.45
2023-01-07T11:01:26.191Z,92.35
2023-01-07T11:03:52.296Z,92.04
2023-01-07T11:06:24.557Z,90.58
2023-01-07T11:08:50.104Z,91.56
2023-01-07T11:11:17.655Z,90.86
2023-01-07T11:13:44.535Z,90.51
2023-01-07T11:16:12.525Z,89.80
2023-01-07T11:18:45.537Z,90.20
2023-01-07T11:21:09.244Z,90.50
2023-01-07T11:23:54.210Z,90.44
2023-01-07T11:26:24.701Z,89.47
2023-01-07T11:28:55.087Z,90.59
2023-01-07T11:31:19.429Z,89.87
2023-01-07T11:34:01.934Z,90.14
2023-01-07T11:36:41.999Z,89.61
2023-01-07T11:39:20.205Z,88.85
2023-01-07T11:41:55.644Z,87.43
2023-01-07T11:44:19.229Z,88.40
2023-01-07T11:46:45.733Z,88.63
2023-01-07T11:49:25.390Z,88.78
2023-01-07T11:51:49.767Z,87.66
2023-01-07T11:54:22.815Z,87.70
2023-01-07T11:56:46.415Z,86.85
2023-01-07T11:59:28.604Z,87.03
2023-01-07T12:01:54.513Z,87.02
2023-01-07T12:04:23.988Z,87.89
2023-01-07T12:06:50.335Z,87.83
2023-01-07T12:09:25.691Z,87.84
2023-01-07T12:11:49.603Z,88.33
2023-01-07T12:14:27.512Z,87.05
2023-01-07T12:16:52.172Z,89.10
2023-01-07T12:19:32.884Z,87.57
2023-01-07T12:22:12.794Z,86.26
2023-01-07T12:25:06.931Z,85.52
2023-01-07T12:27:43.622Z,86.92
2023-01-07T12:30:36.434Z,86.56
2023-01-07T12:33:16.402Z,84.99
2023-01-07T12:35:43.743Z,83.96
2023-01-07T12:38:15.289Z,83.76
2023-01-07T12:40:43.643Z,83.53
2023-01-07T12:43:15.425Z,85.21
2023-01-07T12:45:45.867Z,83.62
2023-01-07T12:48:20.015Z,84.45
2023-01-07T12:50:48.479Z,84.80
2023-01-07T12:53:18.278Z,84.28
2023-01-07T12:55:47.876Z,82.17
2023-01-07T12:58:19.185Z,84.24
2023-01-07T13:00:49.516Z,81.88
2023-01-07T13:03:31.703Z,83.57
2023-01-07T13:06:01.914Z,84.47
2023-01-07T13:08:36.220Z,83.34
2023-01-07T13:11:06.622Z,83.61
2023-01-07T13:13:38.853Z,82.42
2023-01-07T13:16:02.582Z,83.32
2023-01-07T13:18:26.155Z,83.05
2023-01-07T13:21:01.459Z,83.34
2023-01-07T13:23:37.512Z,82.54
2023-01-07T13:26:21.229Z,82.11
2023-01-07T13:29:22.559Z,82.18
2023-01-07T13:32:19.498Z,81.34
2023-01-07T13:34:58.865Z,81.40
2023-01-07T13:37:44.535Z,81.12
2023-01-07T13:40:25.858Z,81.77
2023-01-07T13:42:56.563Z,80.59
2023-01-07T13:45:24.250Z,80.81
2023-01-07T13:47:51.288Z,81.58
2023-01-07T13:50:32.812Z,80.88
2023-01-07T13:53:03.064Z,80.89
2023-01-07T13:55:35.853Z,81.06
2023-01-07T13:58:02.799Z,83.50
2023-01-07T14:01:02.031Z,82.34
2023-01-07T14:03:50.639Z,81.05
2023-01-07T14:06:47.452Z,82.57
2023-01-07T14:09:25.657Z,81.44
2023-01-07T14:12:22.921Z,81.90
2023-01-07T14:15:13.844Z,80.15
2023-01-07T14:17:48.204Z,80.33
2023-01-07T14:20:20.267Z,79.69
2023-01-07T14:22:53.161Z,80.29
2023-01-07T14:25:55.547Z,80.36
2023-01-07T14:29:02.705Z,81.67
2023-01-07T14:31:30.064Z,81.02
2023-01-07T14:33:58.198Z,81.96
2023-01-07T14:36:22.259Z,81.91
2023-01-07T14:39:01.390Z,81.32
2023-01-07T14:41:25.242Z,81.96
2023-01-07T14:44:06.376Z,81.78
2023-01-07T14:46:49.691Z,81.83
2023-01-07T14:49:33.188Z,82.83
2023-01-07T14:52:04.422Z,82.97
2023-01-07T14:55:04.637Z,82.51
2023-01-07T14:57:41.297Z,82.11
2023-01-07T15:00:42.386Z,82.56
2023-01-07T15:03:40.740Z,83.16
2023-01-07T15:06:28.892Z,84.09
2023-01-07T15:09:14.133Z,83.84
2023-01-07T15:11:57.163Z,83.00
2023-01-07T15:14:49.296Z,83.80
2023-01-07T15:17:16.341Z,84.16
2023-01-07T15:19:42.201Z,83.52
2023-01-07T15:22:22.694Z,84.15
2023-01-07T15:24:53.155Z,84.45
2023-01-07T15:27:23.710Z,84.46
2023-01-07T15:29:55.830Z,84.23
2023-01-07T15:32:33.765Z,84.89
2023-01-07T15:34:59.146Z,84.10
2023-01-07T15:37:22.923Z,84.53
2023-01-07T15:39:52.108Z,85.66
2023-01-07T15:42:18.897Z,85.86
2023-01-07T15:44:44.198Z,85.93
2023-01-07T15:47:32.222Z,87.63
2023-01-07T15:49:55.871Z,86.96
2023-01-07T15:52:27.468Z,86.57
2023-01-07T15:54:51.086Z,87.35
2023-01-07T15:57:21.993Z,87.34
2023-01-07T15:59:49.113Z,87.40
2023-01-07T16:02:24.305Z,86.95
2023-01-07T16:04:49.517Z,87.25
2023-01-07T16:07:29.204Z,86.80
2023-01-07T16:09:53.391Z,87.62
2023-01-07T16:12:39.403Z,86.74
2023-01-07T16:15:20.223Z,87.43
2023-01-07T16:17:52.184Z,87.04
2023-01-07T16:20:23.970Z,87.82
2023-01-07T16:22:49.107Z,87.32
2023-01-07T16:25:21.538Z,90.43
2023-01-07T16:27:45.397Z,90.86
2023-01-07T16:30:15.955Z,90.78
2023-01-07T16:32:40.134Z,91.53
2023-01-07T16:35:09.086Z,92.33
2023-01-07T16:37:33.681Z,92.29
2023-01-07T16:39:58.785Z,91.23
2023-01-07T16:42:27.444Z,91.88
2023-01-07T16:45:06.955Z,92.38
2023-01-07T16:47:32.766Z,92.67
2023-01-07T16:49:58.283Z,92.83
2023-01-07T16:52:23.226Z,92.93
2023-01-07T16:54:47.785Z,93.66
2023-01-07T16:57:33.799Z,92.03
2023-01-07T16:59:59.399Z,92.51
2023-01-07T17:02:32.229Z,92.07
2023-01-07T17:04:57.630Z,92.61
2023-01-07T17:07:26.374Z,92.08
2023-01-07T17:09:53.244Z,91.60
2023-01-07T17:12:31.274Z,91.92
2023-01-07T17:14:54.840Z,92.25
2023-01-07T17:17:36.007Z,91.67
2023-01-07T17:20:16.018Z,90.85
2023-01-07T17:22:40.650Z,90.11
2023-01-07T17:25:08.148Z,89.64
2023-01-07T17:27:33.506Z,89.70
2023-01-07T17:29:58.112Z,88.90
2023-01-07T17:32:22.746Z,88.74
2023-01-07T17:34:46.313Z,88.19
2023-01-07T17:37:16.079Z,87.13
2023-01-07T17:39:39.687Z,86.51
2023-01-07T17:42:20.772Z,87.46
2023-01-07T17:44:45.842Z,86.03
2023-01-07T17:47:12.255Z,85.64
2023-01-07T17:49:35.829Z,85.51
2023-01-07T17:51:59.403Z,86.44
2023-01-07T17:54:26.158Z,85.50
2023-01-07T17:56:50.357Z,84.68
2023-01-07T17:59:17.075Z,84.89
2023-01-07T18:01:42.276Z,85.41
2023-01-07T18:04:06.070Z,84.13
2023-01-07T18:06:33.462Z,83.55
2023-01-07T18:08:57.730Z,83.31
2023-01-07T18:11:41.073Z,83.07
2023-01-07T18:14:04.819Z,82.76
2023-01-07T18:16:28.947Z,82.44
2023-01-07T18:18:54.125Z,82.22
2023-01-07T18:21:17.649Z,81.47
2023-01-07T18:23:41.526Z,81.20
2023-01-07T18:26:06.777Z,81.37
2023-01-07T18:28:31.299Z,81.22
2023-01-07T18:30:54.846Z,82.53
2023-01-07T18:33:18.484Z,82.14
2023-01-07T18:35:43.823Z,82.75
2023-01-07T18:38:11.395Z,82.16
2023-01-07T18:40:35.041Z,82.87
2023-01-07T18:43:00.920Z,82.21
2023-01-07T18:45:24.855Z,82.67
2023-01-07T18:47:48.555Z,82.63
2023-01-07T18:50:12.119Z,82.75
2023-01-07T18:52:39.326Z,82.41
2023-01-07T18:55:02.857Z,82.32
2023-01-07T18:57:27.280Z,82.37
2023-01-07T18:59:50.835Z,82.42
2023-01-07T19:02:18.144Z,82.50
2023-01-07T19:04:41.641Z,82.25
2023-01-07T19:07:05.726Z,82.27
2023-01-07T19:09:31.964Z,83.00
2023-01-07T19:11:56.233Z,82.67
2023-01-07T19:14:19.877Z,82.17
2023-01-07T19:16:44.048Z,82.66
2023-01-07T19:19:07.681Z,81.25
2023-01-07T19:21:32.504Z,81.34
2023-01-07T19:23:56.102Z,81.09
2023-01-07T19:26:21.188Z,81.92
2023-01-07T19:28:44.784Z,82.47
2023-01-07T19:31:09.834Z,81.86
2023-01-07T19:33:33.389Z,82.23
2023-01-07T19:36:03.805Z,81.55
2023-01-07T19:38:27.799Z,81.95
2023-01-07T19:40:51.736Z,81.25
2023-01-07T19:43:16.833Z,80.67
2023-01-07T19:45:40.614Z,80.81
2023-01-07T19:48:04.259Z,81.50
2023-01-07T19:50:28.039Z,80.92
2023-01-07T19:52:51.639Z,80.38
2023-01-07T19:55:15.658Z,80.36
2023-01-07T19:57:39.230Z,80.86
2023-01-07T20:00:04.386Z,79.54
2023-01-07T20:02:28.441Z,79.87
2023-01-07T20:04:52.054Z,79.03
2023-01-07T20:07:15.615Z,79.88
2023-01-07T20:09:40.580Z,79.95
2023-01-07T20:12:04.147Z,78.91
2023-01-07T20:14:27.700Z,79.25
2023-01-07T20:16:52.759Z,79.43
2023-01-07T20:19:16.507Z,78.55
2023-01-07T20:21:40.300Z,78.85
2023-01-07T20:24:06.266Z,79.17
2023-01-07T20:26:32.607Z,78.61
2023-01-07T20:28:56.486Z,79.63
2023-01-07T20:31:22.200Z,80.42
2023-01-07T20:33:47.307Z,80.16
2023-01-07T20:36:13.567Z,79.32
2023-01-07T20:38:37.671Z,79.23
2023-01-07T20:41:01.478Z,78.12
2023-01-07T20:43:25.887Z,79.15
2023-01-07T20:45:49.549Z,79.08
2023-01-07T20:48:15.402Z,79.06
2023-01-07T20:50:41.697Z,80.26
2023-01-07T20:53:05.261Z,79.56
2023-01-07T20:55:28.868Z,78.96
2023-01-07T20:57:52.470Z,78.79
2023-01-07T21:00:17.144Z,79.30
2023-01-07T21:02:40.856Z,79.22
2023-01-07T21:05:04.940Z,79.77
2023-01-07T21:07:30.360Z,79.48
2023-01-07T21:09:53.880Z,78.39
2023-01-07T21:12:17.547Z,78.24
2023-01-07T21:14:41.071Z,79.35
2023-01-07T21:17:04.935Z,78.22
2023-01-07T21:19:28.512Z,78.42
2023-01-07T21:21:52.096Z,79.40
2023-01-07T21:24:17.559Z,78.26
2023-01-07T21:26:41.310Z,77.88
2023-01-07T21:29:05.062Z,77.82
2023-01-07T21:31:29.165Z,78.67
2023-01-07T21:33:56.507Z,78.55
2023-01-07T21:36:20.772Z,78.22
2023-01-07T21:38:45.299Z,77.27
2023-01-07T21:41:13.422Z,77.27
2023-01-07T21:43:37.047Z,78.40
2023-01-07T21:46:01.166Z,78.64
2023-01-07T21:48:24.746Z,78.29
2023-01-07T21:50:48.301Z,77.38
2023-01-07T21:53:11.904Z,76.75
2023-01-07T21:55:38.822Z,77.27
2023-01-07T21:58:03.786Z,77.01
2023-01-07T22:00:27.361Z,77.23
2023-01-07T22:02:50.914Z,76.61
2023-01-07T22:05:14.532Z,77.02
2023-01-07T22:07:38.119Z,77.02
2023-01-07T22:10:02.437Z,75.99
2023-01-07T22:12:26.036Z,76.28
2023-01-07T22:14:51.010Z,76.61
2023-01-07T22:17:15.116Z,76.44
2023-01-07T22:19:38.715Z,75.56
2023-01-07T22:22:02.521Z,76.46
2023-01-07T22:24:26.098Z,74.95
2023-01-07T22:26:49.723Z,75.38
2023-01-07T22:29:14.768Z,75.44
2023-01-07T22:31:40.214Z,75.11
2023-01-07T22:34:04.398Z,75.03
2023-01-07T22:36:33.795Z,74.09
2023-01-07T22:39:02.503Z,75.71
2023-01-07T22:41:27.302Z,74.17
2023-01-07T22:43:51.871Z,74.94
2023-01-07T22:46:22.453Z,74.37
2023-01-07T22:48:47.652Z,74.68
2023-01-07T22:51:15.613Z,75.31
2023-01-07T22:53:39.300Z,75.29
2023-01-07T22:56:04.768Z,76.39
2023-01-07T22:58:28.426Z,76.36
2023-01-07T23:01:13.233Z,75.94
2023-01-07T23:03:36.946Z,76.74
2023-01-07T23:06:02.089Z,77.66
2023-01-07T23:08:25.885Z,76.98
2023-01-07T23:10:49.509Z,77.06
2023-01-07T23:13:13.327Z,77.53
2023-01-07T23:15:38.246Z,77.18
2023-01-07T23:18:01.852Z,77.12
2023-01-07T23:20:25.456Z,77.00
2023-01-07T23:22:50.434Z,76.62
2023-01-07T23:25:14.010Z,76.67
2023-01-07T23:27:39.356Z,77.35
2023-01-07T23:30:03.217Z,77.64
2023-01-07T23:32:26.954Z,76.53
2023-01-07T23:34:50.489Z,77.09
2023-01-07T23:37:14.102Z,77.01
2023-01-07T23:39:39.043Z,76.86
2023-01-07T23:42:02.665Z,76.42
2023-01-07T23:44:26.238Z,76.27
2023-01-07T23:46:49.904Z,76.11
2023-01-07T23:49:13.452Z,74.90
2023-01-07T23:51:37.113Z,77.55
2023-01-07T23:54:00.773Z,77.55
2023-01-07T23:56:25.810Z,76.82
2023-01-07T23:58:50.419Z,76.76
